sensor_id;sensor_type;location;lat;lon;timestamp;temperature;humidity
52889;DHT22;41413;52.770;6.892;2023-07-16T00:01:57;17.90;99.90
52889;DHT22;41413;52.770;6.892;2023-07-16T00:04:24;17.80;99.90
52889;DHT22;41413;52.770;6.892;2023-07-16T00:06:51;17.90;99.90
52889;DHT22;41413;52.770;6.892;2023-07-16T00:09:18;17.80;99.90
52889;DHT22;41413;52.770;6.892;2023-07-16T00:11:45;17.80;99.90
52889;DHT22;41413;52.770;6.892;2023-07-16T00:14:11;17.80;99.90
52889;DHT22;41413;52.770;6.892;2023-07-16T00:16:38;17.70;99.90
52889;DHT22;41413;52.770;6.892;2023-07-16T00:19:05;17.70;99.90
52889;DHT22;41413;52.770;6.892;2023-07-16T00:21:32;17.70;99.90
52889;DHT22;41413;52.770;6.892;2023-07-16T00:23:59;17.70;99.90
52889;DHT22;41413;52.770;6.892;2023-07-16T00:26:26;17.70;99.90
52889;DHT22;41413;52.770;6.892;2023-07-16T00:28:53;17.60;99.90
52889;DHT22;41413;52.770;6.892;2023-07-16T00:31:19;17.70;99.90
52889;DHT22;41413;52.770;6.892;2023-07-16T00:33:46;17.70;99.90
52889;DHT22;41413;52.770;6.892;2023-07-16T00:36:13;17.60;99.90
52889;DHT22;41413;52.770;6.892;2023-07-16T00:38:40;17.50;99.90
52889;DHT22;41413;52.770;6.892;2023-07-16T00:41:09;17.50;99.90
52889;DHT22;41413;52.770;6.892;2023-07-16T00:43:35;17.50;99.90
52889;DHT22;41413;52.770;6.892;2023-07-16T00:46:02;17.50;99.90
52889;DHT22;41413;52.770;6.892;2023-07-16T00:48:29;17.50;99.90
52889;DHT22;41413;52.770;6.892;2023-07-16T00:50:56;17.40;99.90
52889;DHT22;41413;52.770;6.892;2023-07-16T00:53:23;17.30;99.90
52889;DHT22;41413;52.770;6.892;2023-07-16T00:55:50;17.30;99.90
52889;DHT22;41413;52.770;6.892;2023-07-16T00:58:18;17.30;99.90
52889;DHT22;41413;52.770;6.892;2023-07-16T01:00:45;17.20;99.90
52889;DHT22;41413;52.770;6.892;2023-07-16T01:03:13;17.30;99.90
52889;DHT22;41413;52.770;6.892;2023-07-16T01:06:18;17.20;99.90
52889;DHT22;41413;52.770;6.892;2023-07-16T01:09:07;17.20;99.90
52889;DHT22;41413;52.770;6.892;2023-07-16T01:11:35;17.10;99.90
52889;DHT22;41413;52.770;6.892;2023-07-16T01:14:03;17.10;99.90
52889;DHT22;41413;52.770;6.892;2023-07-16T01:16:30;17.00;99.90
52889;DHT22;41413;52.770;6.892;2023-07-16T01:18:57;17.00;99.90
52889;DHT22;41413;52.770;6.892;2023-07-16T01:21:28;16.90;99.90
52889;DHT22;41413;52.770;6.892;2023-07-16T01:30:04;17.00;99.90
52889;DHT22;41413;52.770;6.892;2023-07-16T01:32:36;17.10;99.90
52889;DHT22;41413;52.770;6.892;2023-07-16T01:35:05;17.00;99.90
52889;DHT22;41413;52.770;6.892;2023-07-16T01:37:33;17.00;99.90
52889;DHT22;41413;52.770;6.892;2023-07-16T01:40:00;17.00;99.90
52889;DHT22;41413;52.770;6.892;2023-07-16T01:42:27;17.00;99.90
52889;DHT22;41413;52.770;6.892;2023-07-16T01:44:54;17.00;99.90
52889;DHT22;41413;52.770;6.892;2023-07-16T01:49:56;17.00;99.90
52889;DHT22;41413;52.770;6.892;2023-07-16T01:52:22;17.00;99.90
52889;DHT22;41413;52.770;6.892;2023-07-16T01:54:49;17.00;99.90
52889;DHT22;41413;52.770;6.892;2023-07-16T01:57:16;17.00;99.90
52889;DHT22;41413;52.770;6.892;2023-07-16T01:59:43;17.00;99.90
52889;DHT22;41413;52.770;6.892;2023-07-16T02:02:09;17.10;99.90
52889;DHT22;41413;52.770;6.892;2023-07-16T02:04:36;17.10;99.90
52889;DHT22;41413;52.770;6.892;2023-07-16T02:07:03;17.10;99.90
52889;DHT22;41413;52.770;6.892;2023-07-16T02:09:30;17.10;99.90
52889;DHT22;41413;52.770;6.892;2023-07-16T02:11:57;17.20;99.90
52889;DHT22;41413;52.770;6.892;2023-07-16T02:14:24;17.00;99.90
52889;DHT22;41413;52.770;6.892;2023-07-16T02:16:51;17.00;99.90
52889;DHT22;41413;52.770;6.892;2023-07-16T02:19:17;17.10;99.90
52889;DHT22;41413;52.770;6.892;2023-07-16T02:21:44;17.00;99.90
52889;DHT22;41413;52.770;6.892;2023-07-16T02:24:11;17.00;99.90
52889;DHT22;41413;52.770;6.892;2023-07-16T02:26:39;16.90;99.90
52889;DHT22;41413;52.770;6.892;2023-07-16T02:29:06;16.90;99.90
52889;DHT22;41413;52.770;6.892;2023-07-16T02:31:36;16.90;99.90
52889;DHT22;41413;52.770;6.892;2023-07-16T02:34:03;16.90;99.90
52889;DHT22;41413;52.770;6.892;2023-07-16T02:36:29;16.90;99.90
52889;DHT22;41413;52.770;6.892;2023-07-16T02:38:56;16.80;99.90
52889;DHT22;41413;52.770;6.892;2023-07-16T02:41:23;16.70;99.90
52889;DHT22;41413;52.770;6.892;2023-07-16T02:43:59;16.70;99.90
52889;DHT22;41413;52.770;6.892;2023-07-16T02:46:27;16.70;99.90
52889;DHT22;41413;52.770;6.892;2023-07-16T02:48:54;16.60;99.90
52889;DHT22;41413;52.770;6.892;2023-07-16T02:51:20;16.60;99.90
52889;DHT22;41413;52.770;6.892;2023-07-16T02:53:47;16.70;99.90
52889;DHT22;41413;52.770;6.892;2023-07-16T02:56:14;16.70;99.90
52889;DHT22;41413;52.770;6.892;2023-07-16T02:58:41;16.70;99.90
52889;DHT22;41413;52.770;6.892;2023-07-16T03:01:08;16.60;99.90
52889;DHT22;41413;52.770;6.892;2023-07-16T03:03:34;16.60;99.90
52889;DHT22;41413;52.770;6.892;2023-07-16T03:06:02;16.50;99.90
52889;DHT22;41413;52.770;6.892;2023-07-16T03:08:29;16.50;99.90
52889;DHT22;41413;52.770;6.892;2023-07-16T03:10:58;16.60;99.90
52889;DHT22;41413;52.770;6.892;2023-07-16T03:13:25;16.50;99.90
52889;DHT22;41413;52.770;6.892;2023-07-16T03:15:51;16.50;99.90
52889;DHT22;41413;52.770;6.892;2023-07-16T03:18:18;16.50;99.90
52889;DHT22;41413;52.770;6.892;2023-07-16T03:20:46;16.50;99.90
52889;DHT22;41413;52.770;6.892;2023-07-16T03:23:13;16.50;99.90
52889;DHT22;41413;52.770;6.892;2023-07-16T03:25:39;16.40;99.90
52889;DHT22;41413;52.770;6.892;2023-07-16T03:28:06;16.40;99.90
52889;DHT22;41413;52.770;6.892;2023-07-16T03:30:33;16.40;99.90
52889;DHT22;41413;52.770;6.892;2023-07-16T03:33:00;16.30;99.90
52889;DHT22;41413;52.770;6.892;2023-07-16T03:35:26;16.40;99.90
52889;DHT22;41413;52.770;6.892;2023-07-16T03:37:53;16.30;99.90
52889;DHT22;41413;52.770;6.892;2023-07-16T03:40:24;16.40;99.90
52889;DHT22;41413;52.770;6.892;2023-07-16T03:42:51;16.30;99.90
52889;DHT22;41413;52.770;6.892;2023-07-16T03:45:18;16.30;99.90
52889;DHT22;41413;52.770;6.892;2023-07-16T03:47:45;16.40;99.90
52889;DHT22;41413;52.770;6.892;2023-07-16T03:50:12;16.40;99.90
52889;DHT22;41413;52.770;6.892;2023-07-16T03:52:39;16.30;99.90
52889;DHT22;41413;52.770;6.892;2023-07-16T03:55:06;16.40;99.90
52889;DHT22;41413;52.770;6.892;2023-07-16T03:57:33;16.40;99.90
52889;DHT22;41413;52.770;6.892;2023-07-16T04:00:01;16.40;99.90
52889;DHT22;41413;52.770;6.892;2023-07-16T04:02:27;16.40;99.90
52889;DHT22;41413;52.770;6.892;2023-07-16T04:04:54;16.50;99.90
52889;DHT22;41413;52.770;6.892;2023-07-16T04:07:21;16.50;99.90
52889;DHT22;41413;52.770;6.892;2023-07-16T04:09:47;16.50;99.90
52889;DHT22;41413;52.770;6.892;2023-07-16T04:12:14;16.50;99.90
52889;DHT22;41413;52.770;6.892;2023-07-16T04:14:41;16.40;99.90
52889;DHT22;41413;52.770;6.892;2023-07-16T04:17:08;16.50;99.90
52889;DHT22;41413;52.770;6.892;2023-07-16T04:19:35;16.50;99.90
52889;DHT22;41413;52.770;6.892;2023-07-16T04:22:02;16.50;99.90
52889;DHT22;41413;52.770;6.892;2023-07-16T04:24:28;16.50;99.90
52889;DHT22;41413;52.770;6.892;2023-07-16T04:26:55;16.50;99.90
52889;DHT22;41413;52.770;6.892;2023-07-16T04:29:22;16.50;99.90
52889;DHT22;41413;52.770;6.892;2023-07-16T04:31:49;16.50;99.90
52889;DHT22;41413;52.770;6.892;2023-07-16T04:34:16;16.60;99.90
52889;DHT22;41413;52.770;6.892;2023-07-16T04:36:45;16.60;99.90
52889;DHT22;41413;52.770;6.892;2023-07-16T04:39:11;16.60;99.90
52889;DHT22;41413;52.770;6.892;2023-07-16T04:41:38;16.60;99.90
52889;DHT22;41413;52.770;6.892;2023-07-16T04:44:05;16.60;99.90
52889;DHT22;41413;52.770;6.892;2023-07-16T04:46:32;16.70;99.90
52889;DHT22;41413;52.770;6.892;2023-07-16T04:48:59;16.60;99.90
52889;DHT22;41413;52.770;6.892;2023-07-16T04:51:26;16.70;99.90
52889;DHT22;41413;52.770;6.892;2023-07-16T04:53:53;16.80;99.90
52889;DHT22;41413;52.770;6.892;2023-07-16T04:56:20;16.80;99.90
52889;DHT22;41413;52.770;6.892;2023-07-16T04:58:46;16.70;99.90
52889;DHT22;41413;52.770;6.892;2023-07-16T05:01:13;16.80;99.90
52889;DHT22;41413;52.770;6.892;2023-07-16T05:03:40;16.80;99.90
52889;DHT22;41413;52.770;6.892;2023-07-16T05:06:07;16.80;99.90
52889;DHT22;41413;52.770;6.892;2023-07-16T05:08:34;16.80;99.90
52889;DHT22;41413;52.770;6.892;2023-07-16T05:11:01;16.80;99.90
52889;DHT22;41413;52.770;6.892;2023-07-16T05:13:28;16.80;99.90
52889;DHT22;41413;52.770;6.892;2023-07-16T05:15:55;16.80;99.90
52889;DHT22;41413;52.770;6.892;2023-07-16T05:18:22;16.80;99.90
52889;DHT22;41413;52.770;6.892;2023-07-16T05:20:49;16.80;99.90
52889;DHT22;41413;52.770;6.892;2023-07-16T05:23:16;16.90;99.90
52889;DHT22;41413;52.770;6.892;2023-07-16T05:25:46;16.90;99.90
52889;DHT22;41413;52.770;6.892;2023-07-16T05:28:18;16.90;99.90
52889;DHT22;41413;52.770;6.892;2023-07-16T05:30:45;17.00;99.90
52889;DHT22;41413;52.770;6.892;2023-07-16T05:33:11;17.00;99.90
52889;DHT22;41413;52.770;6.892;2023-07-16T05:35:41;17.00;99.90
52889;DHT22;41413;52.770;6.892;2023-07-16T05:38:08;17.20;99.90
52889;DHT22;41413;52.770;6.892;2023-07-16T05:40:34;17.20;99.90
52889;DHT22;41413;52.770;6.892;2023-07-16T05:43:01;17.10;99.90
52889;DHT22;41413;52.770;6.892;2023-07-16T05:45:29;17.10;99.90
52889;DHT22;41413;52.770;6.892;2023-07-16T05:47:56;17.20;99.90
52889;DHT22;41413;52.770;6.892;2023-07-16T05:50:23;17.30;99.90
52889;DHT22;41413;52.770;6.892;2023-07-16T05:52:49;17.30;99.90
52889;DHT22;41413;52.770;6.892;2023-07-16T05:55:17;17.40;99.90
52889;DHT22;41413;52.770;6.892;2023-07-16T05:57:44;17.30;99.90
52889;DHT22;41413;52.770;6.892;2023-07-16T06:00:11;17.30;99.90
52889;DHT22;41413;52.770;6.892;2023-07-16T06:02:37;17.30;99.90
52889;DHT22;41413;52.770;6.892;2023-07-16T06:05:05;17.30;99.90
52889;DHT22;41413;52.770;6.892;2023-07-16T06:07:32;17.30;99.90
52889;DHT22;41413;52.770;6.892;2023-07-16T06:09:59;17.40;99.90
52889;DHT22;41413;52.770;6.892;2023-07-16T06:12:26;17.40;99.90
52889;DHT22;41413;52.770;6.892;2023-07-16T06:14:53;17.50;99.90
52889;DHT22;41413;52.770;6.892;2023-07-16T06:17:20;17.50;99.90
52889;DHT22;41413;52.770;6.892;2023-07-16T06:19:47;17.50;99.90
52889;DHT22;41413;52.770;6.892;2023-07-16T06:22:16;17.50;99.90
52889;DHT22;41413;52.770;6.892;2023-07-16T06:24:43;17.50;99.90
52889;DHT22;41413;52.770;6.892;2023-07-16T06:27:10;17.60;99.90
52889;DHT22;41413;52.770;6.892;2023-07-16T06:29:37;17.50;99.90
52889;DHT22;41413;52.770;6.892;2023-07-16T06:32:04;17.60;99.90
52889;DHT22;41413;52.770;6.892;2023-07-16T06:34:31;17.60;99.90
52889;DHT22;41413;52.770;6.892;2023-07-16T06:36:58;17.70;99.90
52889;DHT22;41413;52.770;6.892;2023-07-16T06:39:24;17.70;99.90
52889;DHT22;41413;52.770;6.892;2023-07-16T06:41:51;17.70;99.90
52889;DHT22;41413;52.770;6.892;2023-07-16T06:44:18;17.80;99.90
52889;DHT22;41413;52.770;6.892;2023-07-16T06:46:45;17.80;99.90
52889;DHT22;41413;52.770;6.892;2023-07-16T06:49:11;17.90;99.90
52889;DHT22;41413;52.770;6.892;2023-07-16T06:51:38;17.90;99.90
52889;DHT22;41413;52.770;6.892;2023-07-16T06:54:06;17.90;99.90
52889;DHT22;41413;52.770;6.892;2023-07-16T06:56:32;17.90;99.90
52889;DHT22;41413;52.770;6.892;2023-07-16T06:58:59;18.00;99.90
52889;DHT22;41413;52.770;6.892;2023-07-16T07:01:26;18.00;99.90
52889;DHT22;41413;52.770;6.892;2023-07-16T07:03:54;18.00;99.90
52889;DHT22;41413;52.770;6.892;2023-07-16T07:06:22;18.10;99.90
52889;DHT22;41413;52.770;6.892;2023-07-16T07:08:51;18.10;99.90
52889;DHT22;41413;52.770;6.892;2023-07-16T07:11:18;18.20;99.90
52889;DHT22;41413;52.770;6.892;2023-07-16T07:13:45;18.20;99.90
52889;DHT22;41413;52.770;6.892;2023-07-16T07:16:12;18.20;99.90
52889;DHT22;41413;52.770;6.892;2023-07-16T07:18:39;18.30;99.90
52889;DHT22;41413;52.770;6.892;2023-07-16T07:21:06;18.40;99.90
52889;DHT22;41413;52.770;6.892;2023-07-16T07:23:33;18.40;99.90
52889;DHT22;41413;52.770;6.892;2023-07-16T07:26:00;18.50;99.90
52889;DHT22;41413;52.770;6.892;2023-07-16T07:28:27;18.40;99.90
52889;DHT22;41413;52.770;6.892;2023-07-16T07:30:54;18.40;99.90
52889;DHT22;41413;52.770;6.892;2023-07-16T07:33:21;18.40;99.90
52889;DHT22;41413;52.770;6.892;2023-07-16T07:35:48;18.50;99.90
52889;DHT22;41413;52.770;6.892;2023-07-16T07:38:15;18.50;99.90
52889;DHT22;41413;52.770;6.892;2023-07-16T07:40:45;18.50;99.90
52889;DHT22;41413;52.770;6.892;2023-07-16T07:43:12;18.60;99.90
52889;DHT22;41413;52.770;6.892;2023-07-16T07:45:39;18.60;99.90
52889;DHT22;41413;52.770;6.892;2023-07-16T07:48:05;18.60;99.90
52889;DHT22;41413;52.770;6.892;2023-07-16T07:50:32;18.70;99.90
52889;DHT22;41413;52.770;6.892;2023-07-16T07:52:59;18.70;99.90
52889;DHT22;41413;52.770;6.892;2023-07-16T07:55:26;18.80;99.90
52889;DHT22;41413;52.770;6.892;2023-07-16T07:57:52;18.80;99.90
52889;DHT22;41413;52.770;6.892;2023-07-16T08:00:20;18.90;99.90
52889;DHT22;41413;52.770;6.892;2023-07-16T08:02:47;18.90;99.90
52889;DHT22;41413;52.770;6.892;2023-07-16T08:05:14;18.90;99.90
52889;DHT22;41413;52.770;6.892;2023-07-16T08:07:41;19.00;99.90
52889;DHT22;41413;52.770;6.892;2023-07-16T08:10:08;19.30;99.90
52889;DHT22;41413;52.770;6.892;2023-07-16T08:12:35;19.50;99.90
52889;DHT22;41413;52.770;6.892;2023-07-16T08:15:02;19.50;99.90
52889;DHT22;41413;52.770;6.892;2023-07-16T08:17:28;19.50;99.90
52889;DHT22;41413;52.770;6.892;2023-07-16T08:19:56;19.50;99.90
52889;DHT22;41413;52.770;6.892;2023-07-16T08:22:22;19.60;99.90
52889;DHT22;41413;52.770;6.892;2023-07-16T08:24:53;19.70;99.90
52889;DHT22;41413;52.770;6.892;2023-07-16T08:27:20;19.60;99.90
52889;DHT22;41413;52.770;6.892;2023-07-16T08:29:47;19.70;99.90
52889;DHT22;41413;52.770;6.892;2023-07-16T08:32:13;19.80;99.90
52889;DHT22;41413;52.770;6.892;2023-07-16T08:34:40;19.80;99.90
52889;DHT22;41413;52.770;6.892;2023-07-16T08:37:07;20.00;99.90
52889;DHT22;41413;52.770;6.892;2023-07-16T08:39:34;19.90;99.90
52889;DHT22;41413;52.770;6.892;2023-07-16T08:42:01;20.00;99.90
52889;DHT22;41413;52.770;6.892;2023-07-16T08:44:29;19.90;99.90
52889;DHT22;41413;52.770;6.892;2023-07-16T08:46:56;19.80;99.90
52889;DHT22;41413;52.770;6.892;2023-07-16T08:49:23;19.80;99.90
52889;DHT22;41413;52.770;6.892;2023-07-16T08:51:52;19.70;99.90
52889;DHT22;41413;52.770;6.892;2023-07-16T08:54:22;19.60;99.90
52889;DHT22;41413;52.770;6.892;2023-07-16T08:56:49;19.60;99.90
52889;DHT22;41413;52.770;6.892;2023-07-16T08:59:17;19.50;99.90
52889;DHT22;41413;52.770;6.892;2023-07-16T09:01:47;19.40;99.90
52889;DHT22;41413;52.770;6.892;2023-07-16T09:04:15;19.30;99.90
52889;DHT22;41413;52.770;6.892;2023-07-16T09:06:43;19.30;99.90
52889;DHT22;41413;52.770;6.892;2023-07-16T09:09:21;19.40;99.90
52889;DHT22;41413;52.770;6.892;2023-07-16T09:11:49;19.50;99.90
52889;DHT22;41413;52.770;6.892;2023-07-16T09:14:19;19.90;99.90
52889;DHT22;41413;52.770;6.892;2023-07-16T09:16:50;20.50;99.90
52889;DHT22;41413;52.770;6.892;2023-07-16T09:19:18;20.30;99.90
52889;DHT22;41413;52.770;6.892;2023-07-16T09:21:51;20.40;99.90
52889;DHT22;41413;52.770;6.892;2023-07-16T09:24:19;20.90;99.90
52889;DHT22;41413;52.770;6.892;2023-07-16T09:26:52;21.20;99.90
52889;DHT22;41413;52.770;6.892;2023-07-16T09:29:20;21.40;99.90
52889;DHT22;41413;52.770;6.892;2023-07-16T09:31:56;21.70;99.90
52889;DHT22;41413;52.770;6.892;2023-07-16T09:34:23;21.70;99.90
52889;DHT22;41413;52.770;6.892;2023-07-16T09:36:50;21.30;99.90
52889;DHT22;41413;52.770;6.892;2023-07-16T09:39:17;21.20;99.90
52889;DHT22;41413;52.770;6.892;2023-07-16T09:41:49;21.30;99.90
52889;DHT22;41413;52.770;6.892;2023-07-16T09:44:17;21.60;99.90
52889;DHT22;41413;52.770;6.892;2023-07-16T09:46:45;21.60;99.90
52889;DHT22;41413;52.770;6.892;2023-07-16T09:49:13;21.30;99.90
52889;DHT22;41413;52.770;6.892;2023-07-16T09:51:42;21.20;99.90
52889;DHT22;41413;52.770;6.892;2023-07-16T09:54:14;20.90;99.90
52889;DHT22;41413;52.770;6.892;2023-07-16T09:56:45;20.50;99.90
52889;DHT22;41413;52.770;6.892;2023-07-16T09:59:16;20.40;99.90
52889;DHT22;41413;52.770;6.892;2023-07-16T10:01:43;20.60;99.90
52889;DHT22;41413;52.770;6.892;2023-07-16T10:04:18;20.80;99.90
52889;DHT22;41413;52.770;6.892;2023-07-16T10:06:54;21.30;99.90
52889;DHT22;41413;52.770;6.892;2023-07-16T10:12:17;22.40;99.90
52889;DHT22;41413;52.770;6.892;2023-07-16T10:14:55;22.70;99.80
52889;DHT22;41413;52.770;6.892;2023-07-16T10:17:26;22.30;98.90
52889;DHT22;41413;52.770;6.892;2023-07-16T10:22:35;21.90;99.20
52889;DHT22;41413;52.770;6.892;2023-07-16T10:25:10;21.50;99.00
52889;DHT22;41413;52.770;6.892;2023-07-16T10:27:37;21.30;99.30
52889;DHT22;41413;52.770;6.892;2023-07-16T10:30:05;21.10;99.90
52889;DHT22;41413;52.770;6.892;2023-07-16T10:32:33;21.00;99.90
52889;DHT22;41413;52.770;6.892;2023-07-16T10:35:00;21.00;99.90
52889;DHT22;41413;52.770;6.892;2023-07-16T10:37:27;20.80;99.90
52889;DHT22;41413;52.770;6.892;2023-07-16T10:39:56;20.70;99.90
52889;DHT22;41413;52.770;6.892;2023-07-16T10:42:24;20.70;99.90
52889;DHT22;41413;52.770;6.892;2023-07-16T10:44:53;20.60;99.90
52889;DHT22;41413;52.770;6.892;2023-07-16T10:47:24;20.60;99.90
52889;DHT22;41413;52.770;6.892;2023-07-16T10:49:51;20.60;99.90
52889;DHT22;41413;52.770;6.892;2023-07-16T10:52:22;20.40;99.90
52889;DHT22;41413;52.770;6.892;2023-07-16T10:54:50;20.50;99.90
52889;DHT22;41413;52.770;6.892;2023-07-16T10:57:24;20.70;99.90
52889;DHT22;41413;52.770;6.892;2023-07-16T10:59:52;20.80;99.90
52889;DHT22;41413;52.770;6.892;2023-07-16T11:02:24;21.00;99.90
52889;DHT22;41413;52.770;6.892;2023-07-16T11:04:52;21.10;99.90
52889;DHT22;41413;52.770;6.892;2023-07-16T11:07:24;21.20;99.90
52889;DHT22;41413;52.770;6.892;2023-07-16T11:09:52;21.40;99.90
52889;DHT22;41413;52.770;6.892;2023-07-16T11:12:22;21.60;99.90
52889;DHT22;41413;52.770;6.892;2023-07-16T11:14:51;21.60;99.90
52889;DHT22;41413;52.770;6.892;2023-07-16T11:17:20;21.60;99.90
52889;DHT22;41413;52.770;6.892;2023-07-16T11:19:49;21.50;99.90
52889;DHT22;41413;52.770;6.892;2023-07-16T11:22:16;21.50;99.90
52889;DHT22;41413;52.770;6.892;2023-07-16T11:24:45;21.50;99.90
52889;DHT22;41413;52.770;6.892;2023-07-16T11:27:26;21.40;99.90
52889;DHT22;41413;52.770;6.892;2023-07-16T11:29:55;21.20;99.90
52889;DHT22;41413;52.770;6.892;2023-07-16T11:32:46;21.20;99.90
52889;DHT22;41413;52.770;6.892;2023-07-16T11:35:17;21.00;99.90
52889;DHT22;41413;52.770;6.892;2023-07-16T11:37:46;21.00;99.90
52889;DHT22;41413;52.770;6.892;2023-07-16T11:40:17;21.40;99.90
52889;DHT22;41413;52.770;6.892;2023-07-16T11:42:45;21.70;99.90
52889;DHT22;41413;52.770;6.892;2023-07-16T11:45:17;21.60;99.90
52889;DHT22;41413;52.770;6.892;2023-07-16T11:47:45;21.70;99.90
52889;DHT22;41413;52.770;6.892;2023-07-16T11:50:12;21.60;99.90
52889;DHT22;41413;52.770;6.892;2023-07-16T11:52:40;21.50;99.90
52889;DHT22;41413;52.770;6.892;2023-07-16T11:55:07;21.40;99.90
52889;DHT22;41413;52.770;6.892;2023-07-16T11:57:35;21.30;99.90
52889;DHT22;41413;52.770;6.892;2023-07-16T12:00:03;21.00;99.90
52889;DHT22;41413;52.770;6.892;2023-07-16T12:02:30;21.10;99.90
52889;DHT22;41413;52.770;6.892;2023-07-16T12:04:57;21.10;99.90
52889;DHT22;41413;52.770;6.892;2023-07-16T12:07:32;21.00;99.90
52889;DHT22;41413;52.770;6.892;2023-07-16T12:10:00;21.10;99.90
52889;DHT22;41413;52.770;6.892;2023-07-16T12:12:28;21.20;99.90
52889;DHT22;41413;52.770;6.892;2023-07-16T12:14:55;21.10;99.90
52889;DHT22;41413;52.770;6.892;2023-07-16T12:17:22;21.00;99.90
52889;DHT22;41413;52.770;6.892;2023-07-16T12:19:49;20.90;99.90
52889;DHT22;41413;52.770;6.892;2023-07-16T12:22:17;20.90;99.90
52889;DHT22;41413;52.770;6.892;2023-07-16T12:24:45;20.80;99.90
52889;DHT22;41413;52.770;6.892;2023-07-16T12:27:11;20.90;99.90
52889;DHT22;41413;52.770;6.892;2023-07-16T12:29:39;20.90;99.90
52889;DHT22;41413;52.770;6.892;2023-07-16T12:32:07;21.00;99.90
52889;DHT22;41413;52.770;6.892;2023-07-16T12:34:35;21.10;99.90
52889;DHT22;41413;52.770;6.892;2023-07-16T12:37:03;21.20;99.90
52889;DHT22;41413;52.770;6.892;2023-07-16T12:39:30;21.20;99.90
52889;DHT22;41413;52.770;6.892;2023-07-16T12:41:57;21.20;99.90
52889;DHT22;41413;52.770;6.892;2023-07-16T12:44:23;21.20;99.90
52889;DHT22;41413;52.770;6.892;2023-07-16T12:46:50;21.20;99.90
52889;DHT22;41413;52.770;6.892;2023-07-16T12:49:17;21.30;99.90
52889;DHT22;41413;52.770;6.892;2023-07-16T12:51:44;21.30;99.90
52889;DHT22;41413;52.770;6.892;2023-07-16T12:54:11;21.60;99.90
52889;DHT22;41413;52.770;6.892;2023-07-16T12:56:37;21.80;99.90
52889;DHT22;41413;52.770;6.892;2023-07-16T12:59:05;21.80;99.90
52889;DHT22;41413;52.770;6.892;2023-07-16T13:01:32;21.90;99.90
52889;DHT22;41413;52.770;6.892;2023-07-16T13:03:59;21.80;99.60
52889;DHT22;41413;52.770;6.892;2023-07-16T13:06:26;21.70;99.50
52889;DHT22;41413;52.770;6.892;2023-07-16T13:08:53;21.50;99.10
52889;DHT22;41413;52.770;6.892;2023-07-16T13:11:19;21.30;99.80
52889;DHT22;41413;52.770;6.892;2023-07-16T13:13:46;21.20;99.70
52889;DHT22;41413;52.770;6.892;2023-07-16T13:16:13;21.20;99.90
52889;DHT22;41413;52.770;6.892;2023-07-16T13:18:40;21.30;99.90
52889;DHT22;41413;52.770;6.892;2023-07-16T13:21:07;21.50;99.80
52889;DHT22;41413;52.770;6.892;2023-07-16T13:23:34;21.60;99.90
52889;DHT22;41413;52.770;6.892;2023-07-16T13:26:02;21.80;99.90
52889;DHT22;41413;52.770;6.892;2023-07-16T13:28:28;21.70;99.90
52889;DHT22;41413;52.770;6.892;2023-07-16T13:30:55;21.70;99.90
52889;DHT22;41413;52.770;6.892;2023-07-16T13:33:22;21.90;99.90
52889;DHT22;41413;52.770;6.892;2023-07-16T13:35:50;22.00;99.90
52889;DHT22;41413;52.770;6.892;2023-07-16T13:38:16;21.90;99.90
52889;DHT22;41413;52.770;6.892;2023-07-16T13:40:43;21.90;99.90
52889;DHT22;41413;52.770;6.892;2023-07-16T13:43:10;22.00;99.90
52889;DHT22;41413;52.770;6.892;2023-07-16T13:45:38;22.10;99.80
52889;DHT22;41413;52.770;6.892;2023-07-16T13:48:05;22.10;99.90
52889;DHT22;41413;52.770;6.892;2023-07-16T13:50:32;22.00;99.90
52889;DHT22;41413;52.770;6.892;2023-07-16T13:52:59;22.00;99.90
52889;DHT22;41413;52.770;6.892;2023-07-16T13:55:28;22.00;99.90
52889;DHT22;41413;52.770;6.892;2023-07-16T13:57:55;22.20;99.90
52889;DHT22;41413;52.770;6.892;2023-07-16T14:00:22;22.50;99.90
52889;DHT22;41413;52.770;6.892;2023-07-16T14:02:49;22.50;99.90
52889;DHT22;41413;52.770;6.892;2023-07-16T14:05:16;22.20;99.90
52889;DHT22;41413;52.770;6.892;2023-07-16T14:07:43;22.10;99.90
52889;DHT22;41413;52.770;6.892;2023-07-16T14:10:10;22.10;99.90
52889;DHT22;41413;52.770;6.892;2023-07-16T14:12:37;22.10;99.90
52889;DHT22;41413;52.770;6.892;2023-07-16T14:15:04;22.20;99.90
52889;DHT22;41413;52.770;6.892;2023-07-16T14:17:31;22.10;99.90
52889;DHT22;41413;52.770;6.892;2023-07-16T14:19:58;22.00;99.90
52889;DHT22;41413;52.770;6.892;2023-07-16T14:22:25;22.30;99.90
52889;DHT22;41413;52.770;6.892;2023-07-16T14:24:54;22.30;99.90
52889;DHT22;41413;52.770;6.892;2023-07-16T14:27:21;22.10;99.90
52889;DHT22;41413;52.770;6.892;2023-07-16T14:29:49;21.90;99.90
52889;DHT22;41413;52.770;6.892;2023-07-16T14:32:32;21.80;99.90
52889;DHT22;41413;52.770;6.892;2023-07-16T14:34:59;21.90;99.90
52889;DHT22;41413;52.770;6.892;2023-07-16T14:37:27;22.00;99.90
52889;DHT22;41413;52.770;6.892;2023-07-16T14:39:53;22.10;99.90
52889;DHT22;41413;52.770;6.892;2023-07-16T14:42:20;22.20;99.90
52889;DHT22;41413;52.770;6.892;2023-07-16T14:44:47;22.50;99.90
52889;DHT22;41413;52.770;6.892;2023-07-16T14:47:14;22.50;99.90
52889;DHT22;41413;52.770;6.892;2023-07-16T14:49:41;22.60;99.90
52889;DHT22;41413;52.770;6.892;2023-07-16T14:52:08;22.50;99.30
52889;DHT22;41413;52.770;6.892;2023-07-16T14:54:35;22.60;99.80
52889;DHT22;41413;52.770;6.892;2023-07-16T14:57:03;22.70;98.70
52889;DHT22;41413;52.770;6.892;2023-07-16T14:59:30;22.80;97.40
52889;DHT22;41413;52.770;6.892;2023-07-16T15:01:56;22.80;97.50
52889;DHT22;41413;52.770;6.892;2023-07-16T15:04:24;22.90;98.10
52889;DHT22;41413;52.770;6.892;2023-07-16T15:06:50;22.90;97.40
52889;DHT22;41413;52.770;6.892;2023-07-16T15:09:17;23.00;97.50
52889;DHT22;41413;52.770;6.892;2023-07-16T15:11:44;23.00;96.80
52889;DHT22;41413;52.770;6.892;2023-07-16T15:14:11;23.00;96.20
52889;DHT22;41413;52.770;6.892;2023-07-16T15:16:39;22.90;95.70
52889;DHT22;41413;52.770;6.892;2023-07-16T15:19:06;22.90;96.40
52889;DHT22;41413;52.770;6.892;2023-07-16T15:21:35;22.90;96.70
52889;DHT22;41413;52.770;6.892;2023-07-16T15:24:05;22.80;96.70
52889;DHT22;41413;52.770;6.892;2023-07-16T15:26:32;22.80;96.50
52889;DHT22;41413;52.770;6.892;2023-07-16T15:28:59;22.60;96.90
52889;DHT22;41413;52.770;6.892;2023-07-16T15:31:26;22.40;97.70
52889;DHT22;41413;52.770;6.892;2023-07-16T15:33:56;22.30;98.30
52889;DHT22;41413;52.770;6.892;2023-07-16T15:36:25;22.10;98.30
52889;DHT22;41413;52.770;6.892;2023-07-16T15:38:52;22.10;98.60
52889;DHT22;41413;52.770;6.892;2023-07-16T15:41:19;22.10;99.30
52889;DHT22;41413;52.770;6.892;2023-07-16T15:43:48;21.90;99.10
52889;DHT22;41413;52.770;6.892;2023-07-16T15:46:16;21.90;99.30
52889;DHT22;41413;52.770;6.892;2023-07-16T15:48:45;21.70;99.50